Aérodrome :
LOGIN :

S'inscrire | Disclaimer

   EN    FR    IT 

 










Légende :    VFR   VFR Marginal   IFR   IFR Intensif   IFR Très Intensif
Visi : 
Plafond : 
>= 8 km
>= 3000ft
5 à 8 km
1000 à 3000 ft
1500m à 5 km
500 à 1000 ft
800 à 1500m
200 à 500 ft
< 800m
< 200 ft
Symboles :   Orages  Brouillard  Fortes neiges  Fortes précipitations  Vent > 20 kt
SIGMETs :   Divers  Orages  Givrage  Turbulence  Onde Orograph.  Cendres Volcan.







- Altitude de l'aérodrome : 171 ft
- Code IATA : EGC
- Voir les cartes d'approche


LFBE - Bergerac

DERNIER METAR :
  • 301230Z AUTO 24010KT 200V270 9999 -RA FEW042/// SCT060/// OVC070/// ///CB 16/12 Q1003 TEMPO 18020G30KT 3000 TSGRRA

METARs EXPIRÉS :
  • 301200Z AUTO 20005KT 170V240 9999 -RA FEW027 OVC074 17/11 Q1002 TEMPO 18020G30KT 3000 TSGRRA BKN030TCU SCT060CB
  • 301130Z AUTO 19009KT 150V220 9999 FEW032/// SCT072/// OVC088/// ///TCU 17/09 Q1002 TEMPO 18020G30KT 3000 TSGRRA BKN030TCU SCT060CB
  • 301100Z AUTO 15014KT 9999 ///TCU 17/09 Q1002 TEMPO 18015G30KT 3000 TSGRRA BKN030TCU SCT060CB
  • 301030Z AUTO 14019KT 100V170 CAVOK 18/09 Q1001 TEMPO 18015G30KT 3000 TSGRRA BKN030TCU SCT060CB
  • 301000Z AUTO 14018KT 110V170 CAVOK 18/09 Q1002 TEMPO 18015G30KT 3000 TSGRRA BKN030TCU SCT060CB

TAF AMD TAF LFBE
Valide du 30 à 12h jusqu'au 01 à 12h UTC


301219Z 3012/0112 20010KT 9999 SCT020 BKN040
PROB40
TEMPO 3012/3015 18020G30KT 3000 TSGRRA BKN030TCU SCT060CB
BECMG 3017/3019 NSW
PROB30
TEMPO 0100/0112 3500 SHRA SCT015 BKN030TCU
Pas de NOTAMs connus pour ce terrain.
4 SIGMETs publiés pour la FIR Bordeaux (LFBB) :
 
Orages noyés dans la masse
LFBB SIGMET 9 VALID 301200/301400 LFPW
LFBB BORDEAUX FIR/UIR EMBD TS OBS WI N4400 W00015 - N4615 E00030 - N4630 E00115 - N4430 E00045 TOP FL300 MOV NE 15KT NC=
Turbulence forte
LFBB SIGMET 8 VALID 301200/301600 LFPW
LFBB BORDEAUX FIR/UIR SEV TURB FCST WI N4300 W00115 - N4300 W00145 - N4545 W00145 - N4545 W00030 SFC/FL070 MOV E 15KT NC=
Turbulence forte
LFBB SIGMET 7 VALID 301200/301600 LFPW
LFBB BORDEAUX FIR/UIR SEV TURB FCST WI N4630 E00300 - N4230 E00230 - N4615 E00115 SFC/FL070 STNR NC=
Onde orographique forte
LFBB SIGMET 6 VALID 301200/301600 LFPW
LFBB BORDEAUX FIR/UIR SEV MTW FCST S OF LINE N4245 E00230 - N4315 W00145 FL050/350 STNR NC=



MET'MAP, la Météo Aéronautique d'un coup d'oeil ! - Copyright ORBIFLY Décembre 2007 - Disclaimer

ORBIFLY MET'MAP TEAM :

Programmation & Développement : Alexandra Zaïnal
Conception & Développement : Baudouin d'Aumeries
Co-Programmation & Développement : Marc-Olivier Méhu
Soutien technique & logistique : Manuel Goepfert

Contact : metmap@orbifly.com




SOURCES & CREDITS :

   NOAA